createdAt,value
2018-04-30T00:02:09.944Z,34.30
2018-04-30T00:04:39.974Z,34.30
2018-04-30T00:07:07.513Z,34.20
2018-04-30T00:09:35.093Z,34.50
2018-04-30T00:12:02.775Z,34.50
2018-04-30T00:14:30.303Z,34.60
2018-04-30T00:16:58.784Z,35.00
2018-04-30T00:19:26.410Z,34.40
2018-04-30T00:21:55.985Z,34.50
2018-04-30T00:24:25.353Z,34.60
2018-04-30T00:26:53.955Z,34.60
2018-04-30T00:29:21.522Z,34.50
2018-04-30T00:31:50.140Z,34.50
2018-04-30T00:34:26.208Z,35.30
2018-04-30T00:36:53.759Z,34.70
2018-04-30T00:42:26.177Z,34.70
2018-04-30T00:44:53.700Z,34.70
2018-04-30T00:47:21.220Z,34.90
2018-04-30T00:49:49.742Z,35.50
2018-04-30T00:52:18.334Z,35.80
2018-04-30T00:54:58.397Z,35.10
2018-04-30T00:57:28.721Z,35.00
2018-04-30T00:59:57.988Z,35.10
2018-04-30T01:02:27.652Z,35.10
2018-04-30T01:04:55.269Z,35.10
2018-04-30T01:07:25.496Z,35.10
2018-04-30T01:09:54.004Z,35.20
2018-04-30T01:12:24.651Z,35.40
2018-04-30T01:14:52.213Z,35.20
2018-04-30T01:17:20.757Z,35.40
2018-04-30T01:19:48.283Z,35.50
2018-04-30T01:22:17.828Z,35.00
2018-04-30T01:24:46.137Z,35.90
2018-04-30T01:27:13.738Z,35.90
2018-04-30T01:29:42.225Z,36.00
2018-04-30T01:32:09.799Z,36.10
2018-04-30T01:34:39.130Z,36.30
2018-04-30T01:37:08.503Z,36.20
2018-04-30T01:39:38.057Z,36.20
2018-04-30T01:42:06.601Z,36.40
2018-04-30T01:44:34.949Z,36.60
2018-04-30T01:47:02.532Z,36.50
2018-04-30T01:49:30.084Z,36.60
2018-04-30T01:51:59.221Z,37.00
2018-04-30T01:54:27.770Z,36.60
2018-04-30T01:56:55.396Z,36.80
2018-04-30T01:59:23.948Z,36.50
2018-04-30T02:01:51.871Z,36.60
2018-04-30T02:04:19.468Z,36.50
2018-04-30T02:06:47.526Z,36.60
2018-04-30T02:09:16.865Z,36.70
2018-04-30T02:11:45.425Z,36.70
2018-04-30T02:14:12.963Z,36.70
2018-04-30T02:16:54.624Z,36.50
2018-04-30T02:19:23.151Z,36.40
2018-04-30T02:21:55.633Z,36.50
2018-04-30T02:24:25.927Z,36.70
2018-04-30T02:26:54.444Z,36.70
2018-04-30T02:29:25.069Z,36.80
2018-04-30T02:31:53.645Z,37.00
2018-04-30T02:34:23.296Z,36.60
2018-04-30T02:36:51.810Z,36.60
2018-04-30T02:39:20.766Z,37.00
2018-04-30T02:41:48.414Z,36.80
2018-04-30T02:44:17.905Z,36.70
2018-04-30T02:46:45.725Z,36.80
2018-04-30T02:49:14.355Z,36.80
2018-04-30T02:51:41.830Z,36.80
2018-04-30T02:54:09.384Z,36.90
2018-04-30T02:56:37.846Z,37.10
2018-04-30T02:59:07.153Z,37.60
2018-04-30T03:01:35.438Z,37.60
2018-04-30T03:04:03.755Z,37.70
2018-04-30T03:06:31.306Z,37.70
2018-04-30T03:09:00.866Z,38.20
2018-04-30T03:11:29.168Z,38.30
2018-04-30T03:13:58.011Z,38.60
2018-04-30T03:16:26.640Z,38.60
2018-04-30T03:18:54.986Z,39.10
2018-04-30T03:21:23.023Z,39.10
2018-04-30T03:23:50.564Z,39.10
2018-04-30T03:26:18.232Z,39.50
2018-04-30T03:28:45.767Z,39.80
2018-04-30T03:31:24.111Z,40.20
2018-04-30T03:33:52.770Z,41.00
2018-04-30T03:36:20.361Z,42.90
2018-04-30T03:38:48.368Z,44.30
2018-04-30T03:41:21.823Z,46.10
2018-04-30T03:43:50.154Z,46.00
2018-04-30T03:46:17.724Z,46.70
2018-04-30T03:48:45.350Z,47.40
2018-04-30T03:51:13.816Z,49.30
2018-04-30T03:53:42.152Z,51.70
2018-04-30T03:56:09.774Z,51.70
2018-04-30T03:58:38.186Z,53.10
2018-04-30T04:01:17.571Z,53.00
2018-04-30T04:03:58.476Z,53.40
2018-04-30T04:06:45.448Z,53.60
2018-04-30T04:09:13.048Z,53.60
2018-04-30T04:11:40.621Z,53.90
2018-04-30T04:14:08.284Z,54.40
2018-04-30T04:16:35.927Z,54.90
2018-04-30T04:19:04.352Z,55.40
2018-04-30T04:21:32.007Z,55.30
2018-04-30T04:23:59.619Z,52.40
2018-04-30T04:26:27.973Z,48.90
2018-04-30T04:28:55.577Z,48.90
2018-04-30T04:31:23.165Z,48.80
2018-04-30T04:33:50.777Z,48.70
2018-04-30T04:36:19.184Z,48.70
2018-04-30T04:38:46.778Z,48.70
2018-04-30T04:41:14.376Z,48.00
2018-04-30T04:43:42.754Z,46.80
2018-04-30T04:46:11.172Z,45.60
2018-04-30T04:48:38.833Z,45.60
2018-04-30T04:51:06.601Z,45.30
2018-04-30T04:53:34.232Z,44.60
2018-04-30T04:56:01.831Z,44.40
2018-04-30T04:58:29.489Z,44.20
2018-04-30T05:00:57.268Z,43.90
2018-04-30T05:03:25.147Z,44.00
2018-04-30T05:05:52.820Z,44.00
2018-04-30T05:08:20.695Z,44.40
2018-04-30T05:10:48.345Z,44.60
2018-04-30T05:13:16.041Z,44.90
2018-04-30T05:15:43.594Z,45.00
2018-04-30T05:18:11.197Z,44.80
2018-04-30T05:20:38.805Z,44.70
2018-04-30T05:23:07.220Z,45.60
2018-04-30T05:25:34.927Z,45.50
2018-04-30T05:28:02.678Z,45.80
2018-04-30T05:30:30.736Z,46.10
2018-04-30T05:32:58.362Z,46.20
2018-04-30T05:35:26.027Z,46.60
2018-04-30T05:37:53.796Z,46.70
2018-04-30T05:40:21.512Z,46.80
2018-04-30T05:42:49.162Z,46.50
2018-04-30T05:45:16.769Z,45.80
2018-04-30T05:47:44.384Z,46.20
2018-04-30T05:50:12.981Z,46.70
2018-04-30T05:52:40.714Z,46.80
2018-04-30T05:55:09.675Z,47.30
2018-04-30T05:57:38.133Z,48.00
2018-04-30T06:00:05.867Z,48.00
2018-04-30T06:02:33.497Z,48.20
2018-04-30T06:05:01.079Z,48.00
2018-04-30T06:07:28.662Z,47.90
2018-04-30T06:09:56.267Z,47.80
2018-04-30T06:12:23.813Z,48.50
2018-04-30T06:14:52.254Z,47.90
2018-04-30T06:17:19.941Z,47.90
2018-04-30T06:19:48.401Z,49.80
2018-04-30T06:22:16.018Z,49.80
2018-04-30T06:24:43.642Z,51.30
2018-04-30T06:27:11.261Z,52.10
2018-04-30T06:29:38.818Z,52.80
2018-04-30T06:32:06.408Z,54.40
2018-04-30T06:34:34.027Z,55.30
2018-04-30T06:37:01.706Z,55.50
2018-04-30T06:39:29.315Z,56.00
2018-04-30T06:41:57.705Z,57.00
2018-04-30T06:44:26.092Z,56.80
2018-04-30T06:46:54.467Z,56.60
2018-04-30T06:49:23.899Z,57.10
2018-04-30T06:51:51.446Z,57.20
2018-04-30T06:54:19.049Z,58.00
2018-04-30T06:56:46.713Z,58.30
2018-04-30T06:59:14.357Z,58.60
2018-04-30T07:01:43.977Z,58.10
2018-04-30T07:04:11.649Z,58.60
2018-04-30T07:06:39.293Z,58.70
2018-04-30T07:09:06.946Z,59.50
2018-04-30T07:11:35.295Z,58.10
2018-04-30T07:14:03.737Z,58.60
2018-04-30T07:16:31.410Z,58.70
2018-04-30T07:18:59.039Z,58.80
2018-04-30T07:21:26.722Z,58.50
2018-04-30T07:23:54.323Z,58.90
2018-04-30T07:26:21.944Z,59.10
2018-04-30T07:28:49.598Z,57.90
2018-04-30T07:31:17.212Z,58.20
2018-04-30T07:33:44.864Z,58.00
2018-04-30T07:36:13.232Z,56.50
2018-04-30T07:38:41.728Z,56.00
2018-04-30T07:41:10.367Z,55.90
2018-04-30T07:43:38.489Z,55.00
2018-04-30T07:46:06.080Z,53.70
2018-04-30T07:48:33.794Z,53.20
2018-04-30T07:51:01.409Z,52.80
2018-04-30T07:53:29.381Z,51.60
2018-04-30T07:55:57.040Z,51.80
2018-04-30T07:58:24.588Z,50.70
2018-04-30T08:00:52.227Z,50.30
2018-04-30T08:03:19.778Z,49.80
2018-04-30T08:05:48.463Z,49.80
2018-04-30T08:08:16.909Z,49.30
2018-04-30T08:10:44.557Z,49.30
2018-04-30T08:13:13.155Z,48.50
2018-04-30T08:15:41.568Z,47.20
2018-04-30T08:18:09.546Z,45.90
2018-04-30T08:20:37.102Z,45.80
2018-04-30T08:23:17.894Z,44.80
2018-04-30T08:25:45.595Z,42.00
2018-04-30T08:28:13.195Z,39.40
2018-04-30T08:30:41.877Z,38.50
2018-04-30T08:33:10.331Z,37.20
2018-04-30T08:35:38.339Z,37.20
2018-04-30T08:38:06.299Z,36.80
2018-04-30T08:40:34.648Z,34.60
2018-04-30T08:43:02.547Z,34.50
2018-04-30T08:45:30.987Z,34.80
2018-04-30T08:47:58.596Z,34.70
2018-04-30T08:50:26.297Z,35.00
2018-04-30T08:52:54.075Z,34.90
2018-04-30T08:55:21.851Z,34.80
2018-04-30T08:57:50.408Z,34.60
2018-04-30T09:00:18.002Z,33.70
2018-04-30T09:02:46.444Z,34.80
2018-04-30T09:05:14.029Z,34.80
2018-04-30T09:07:41.938Z,34.80
2018-04-30T09:10:10.459Z,35.80
2018-04-30T09:12:38.052Z,35.70
2018-04-30T09:15:06.711Z,34.90
2018-04-30T09:17:34.248Z,34.90
2018-04-30T09:20:02.076Z,35.70
2018-04-30T09:22:30.477Z,36.30
2018-04-30T09:24:58.843Z,36.60
2018-04-30T09:27:26.563Z,36.00
2018-04-30T09:29:54.394Z,37.10
2018-04-30T09:32:21.964Z,35.90
2018-04-30T09:34:49.659Z,35.70
2018-04-30T09:37:17.320Z,34.70
2018-04-30T09:39:46.378Z,34.50
2018-04-30T09:42:14.049Z,34.50
2018-04-30T09:44:41.634Z,34.70
2018-04-30T09:47:09.260Z,33.00
2018-04-30T09:49:36.857Z,32.50
2018-04-30T09:52:04.538Z,33.10
2018-04-30T09:54:32.206Z,32.90
2018-04-30T09:57:00.625Z,33.40
2018-04-30T09:59:28.224Z,33.40
2018-04-30T10:01:56.781Z,32.80
2018-04-30T10:04:24.377Z,31.90
2018-04-30T10:06:52.756Z,31.30
2018-04-30T10:09:20.359Z,31.20
2018-04-30T10:11:47.941Z,30.30
2018-04-30T10:14:15.530Z,29.70
2018-04-30T10:16:43.159Z,29.50
2018-04-30T10:19:10.723Z,28.30
2018-04-30T10:21:38.596Z,27.50
2018-04-30T10:24:06.206Z,26.00
2018-04-30T10:26:33.740Z,25.20
2018-04-30T10:29:01.551Z,24.50
2018-04-30T10:31:31.027Z,25.50
2018-04-30T10:33:58.804Z,25.50
2018-04-30T10:36:26.373Z,26.50
2018-04-30T10:38:53.999Z,26.90
2018-04-30T10:41:22.758Z,28.50
2018-04-30T10:43:50.428Z,28.50
2018-04-30T10:46:17.989Z,28.00
2018-04-30T10:48:45.563Z,26.70
2018-04-30T10:51:13.323Z,25.80
2018-04-30T10:53:40.962Z,25.50
2018-04-30T10:56:08.631Z,25.60
2018-04-30T10:58:36.280Z,26.00
2018-04-30T11:01:03.977Z,26.20
2018-04-30T11:03:31.643Z,27.00
2018-04-30T11:06:00.067Z,28.50
2018-04-30T11:08:27.680Z,28.50
2018-04-30T11:10:55.440Z,29.70
2018-04-30T11:13:25.346Z,30.20
2018-04-30T11:15:53.205Z,30.90
2018-04-30T11:18:21.075Z,31.40
2018-04-30T11:20:48.732Z,31.50
2018-04-30T11:23:16.427Z,31.40
2018-04-30T11:25:45.075Z,31.60
2018-04-30T11:28:12.768Z,31.70
2018-04-30T11:30:40.466Z,32.00
2018-04-30T11:33:08.192Z,32.70
2018-04-30T11:35:36.787Z,33.90
2018-04-30T11:38:05.681Z,34.80
2018-04-30T11:40:33.439Z,34.30
2018-04-30T11:43:01.224Z,34.10
2018-04-30T11:45:28.856Z,33.90
2018-04-30T11:47:57.669Z,33.80
2018-04-30T11:50:25.317Z,33.90
2018-04-30T11:52:52.951Z,35.20
2018-04-30T11:55:20.963Z,34.70
2018-04-30T11:57:48.928Z,35.80
2018-04-30T12:00:16.699Z,35.70
2018-04-30T12:02:44.681Z,35.60
2018-04-30T12:05:14.395Z,35.30
2018-04-30T12:07:42.025Z,35.00
2018-04-30T12:10:10.567Z,36.30
2018-04-30T12:12:38.401Z,36.20
2018-04-30T12:15:06.137Z,35.70
2018-04-30T12:17:33.761Z,36.20
2018-04-30T12:20:01.423Z,35.70
2018-04-30T12:22:29.280Z,35.80
2018-04-30T12:24:57.021Z,35.50
2018-04-30T12:27:24.736Z,35.00
2018-04-30T12:29:52.586Z,35.70
2018-04-30T12:32:20.181Z,35.80
2018-04-30T12:34:47.826Z,36.50
2018-04-30T12:37:15.499Z,37.50
2018-04-30T12:39:43.199Z,38.70
2018-04-30T12:42:11.225Z,38.40
2018-04-30T12:44:39.913Z,38.50
2018-04-30T12:47:07.582Z,38.40
2018-04-30T12:49:35.486Z,37.60
2018-04-30T12:52:03.109Z,38.20
2018-04-30T12:54:31.681Z,37.80
2018-04-30T12:57:00.095Z,38.70
2018-04-30T12:59:27.910Z,38.60
2018-04-30T13:01:55.590Z,39.10
2018-04-30T13:04:24.210Z,39.00
2018-04-30T13:06:52.393Z,38.10
2018-04-30T13:09:20.211Z,37.60
2018-04-30T13:11:48.690Z,36.60
2018-04-30T13:14:16.375Z,36.50
2018-04-30T13:16:44.472Z,37.10
2018-04-30T13:19:12.999Z,37.40
2018-04-30T13:21:40.672Z,37.30
2018-04-30T13:24:08.308Z,37.60
2018-04-30T13:26:37.168Z,37.90
2018-04-30T13:29:05.043Z,37.60
2018-04-30T13:31:33.481Z,36.50
2018-04-30T13:34:02.220Z,36.10
2018-04-30T13:36:29.846Z,36.00
2018-04-30T13:38:58.404Z,36.70
2018-04-30T13:41:26.266Z,36.60
2018-04-30T13:43:53.972Z,37.50
2018-04-30T13:46:22.736Z,36.90
2018-04-30T13:48:51.265Z,37.80
2018-04-30T13:51:18.988Z,37.80
2018-04-30T13:53:47.450Z,36.80
2018-04-30T13:56:15.105Z,36.80
2018-04-30T13:58:42.824Z,36.30
2018-04-30T14:01:11.377Z,36.10
2018-04-30T14:03:39.174Z,35.60
2018-04-30T14:06:06.886Z,35.60
2018-04-30T14:08:34.549Z,35.10
2018-04-30T14:11:02.601Z,34.80
2018-04-30T14:13:30.396Z,34.80
2018-04-30T14:15:58.928Z,35.10
2018-04-30T14:18:27.534Z,35.40
2018-04-30T14:20:55.268Z,35.40
2018-04-30T14:23:22.987Z,35.00
2018-04-30T14:25:51.531Z,35.80
2018-04-30T14:28:19.927Z,35.50
2018-04-30T14:30:48.440Z,35.20
2018-04-30T14:33:16.106Z,35.10
2018-04-30T14:35:43.767Z,35.40
2018-04-30T14:38:11.421Z,36.00
2018-04-30T14:40:39.049Z,35.50
2018-04-30T14:43:07.476Z,35.30
2018-04-30T14:45:35.133Z,35.30
2018-04-30T14:48:02.793Z,35.60
2018-04-30T14:50:30.406Z,35.20
2018-04-30T14:52:58.558Z,34.90
2018-04-30T14:55:27.037Z,35.20
2018-04-30T14:57:55.591Z,35.80
2018-04-30T15:00:23.270Z,35.80
2018-04-30T15:02:51.039Z,35.90
2018-04-30T15:05:18.713Z,36.00
2018-04-30T15:07:47.481Z,36.00
2018-04-30T15:10:15.297Z,35.80
2018-04-30T15:12:43.025Z,35.60
2018-04-30T15:15:10.763Z,34.10
2018-04-30T15:17:39.414Z,34.30
2018-04-30T15:20:07.174Z,34.80
2018-04-30T15:22:35.834Z,34.70
2018-04-30T15:25:04.337Z,34.90
2018-04-30T15:27:32.034Z,34.70
2018-04-30T15:29:59.729Z,35.50
2018-04-30T15:32:27.600Z,34.70
2018-04-30T15:34:56.152Z,34.80
2018-04-30T15:37:24.947Z,34.70
2018-04-30T15:39:52.615Z,35.20
2018-04-30T15:42:20.441Z,35.00
2018-04-30T15:44:49.060Z,34.80
2018-04-30T15:47:16.762Z,34.80
2018-04-30T15:49:45.507Z,34.40
2018-04-30T15:52:13.169Z,34.00
2018-04-30T15:54:41.132Z,33.50
2018-04-30T15:57:09.654Z,34.10
2018-04-30T15:59:38.235Z,34.50
2018-04-30T16:02:06.633Z,34.50
2018-04-30T16:04:35.182Z,34.60
2018-04-30T16:07:02.915Z,34.60
2018-04-30T16:09:30.701Z,34.80
2018-04-30T16:11:58.475Z,34.80
2018-04-30T16:14:26.260Z,34.60
2018-04-30T16:16:54.731Z,35.00
2018-04-30T16:19:22.708Z,34.90
2018-04-30T16:21:50.401Z,34.70
2018-04-30T16:24:18.898Z,35.90
2018-04-30T16:26:47.654Z,35.90
2018-04-30T16:29:15.513Z,36.40
2018-04-30T16:31:43.236Z,37.60
2018-04-30T16:34:11.135Z,37.90
2018-04-30T16:36:39.701Z,37.90
2018-04-30T16:39:07.372Z,37.80
2018-04-30T16:41:35.108Z,38.20
2018-04-30T16:44:02.804Z,38.50
2018-04-30T16:46:30.429Z,38.90
2018-04-30T16:48:58.105Z,39.00
2018-04-30T16:51:26.003Z,39.00
2018-04-30T16:53:54.401Z,39.20
2018-04-30T16:56:22.984Z,39.30
2018-04-30T16:58:51.757Z,39.30
2018-04-30T17:01:19.457Z,39.10
2018-04-30T17:03:47.153Z,39.10
2018-04-30T17:06:15.775Z,39.10
2018-04-30T17:08:43.465Z,39.10
2018-04-30T17:11:11.137Z,39.30
2018-04-30T17:13:39.574Z,39.30
2018-04-30T17:16:07.371Z,39.30
2018-04-30T17:18:35.210Z,39.50
2018-04-30T17:21:02.860Z,39.30
2018-04-30T17:23:31.773Z,39.10
2018-04-30T17:26:00.272Z,39.10
2018-04-30T17:28:28.860Z,39.00
2018-04-30T17:30:57.509Z,38.80
2018-04-30T17:33:25.440Z,38.80
2018-04-30T17:35:53.976Z,38.10
2018-04-30T17:38:21.991Z,38.00
2018-04-30T17:40:49.929Z,38.30
2018-04-30T17:43:17.677Z,38.30
2018-04-30T17:45:45.511Z,38.50
2018-04-30T17:48:13.358Z,38.30
2018-04-30T17:50:41.123Z,38.40
2018-04-30T17:53:08.855Z,38.80
2018-04-30T17:55:37.072Z,38.60
2018-04-30T17:58:07.071Z,38.10
2018-04-30T18:00:34.720Z,39.10
2018-04-30T18:03:03.292Z,40.20
2018-04-30T18:05:31.162Z,40.20
2018-04-30T18:07:59.768Z,42.30
2018-04-30T18:10:28.395Z,44.90
2018-04-30T18:12:56.370Z,44.90
2018-04-30T18:15:24.044Z,46.50
2018-04-30T18:17:51.722Z,48.80
2018-04-30T18:20:19.428Z,50.20
2018-04-30T18:22:47.067Z,51.30
2018-04-30T18:25:15.094Z,51.80
2018-04-30T18:27:42.788Z,53.20
2018-04-30T18:30:10.707Z,54.00
2018-04-30T18:32:38.381Z,55.30
2018-04-30T18:35:06.149Z,56.90
2018-04-30T18:37:33.998Z,55.70
2018-04-30T18:40:01.592Z,54.60
2018-04-30T18:42:29.427Z,56.00
2018-04-30T18:44:57.101Z,56.60
2018-04-30T18:47:24.879Z,57.00
2018-04-30T18:49:52.825Z,57.50
2018-04-30T18:52:20.666Z,59.10
2018-04-30T18:54:48.381Z,59.80
2018-04-30T18:57:16.279Z,61.20
2018-04-30T18:59:43.917Z,62.40
2018-04-30T19:02:11.549Z,64.00
2018-04-30T19:04:39.244Z,64.80
2018-04-30T19:07:06.988Z,65.40
2018-04-30T19:09:34.803Z,65.90
2018-04-30T19:12:02.721Z,66.30
2018-04-30T19:14:30.802Z,65.20
2018-04-30T19:16:59.165Z,63.90
2018-04-30T19:19:26.894Z,63.70
2018-04-30T19:21:55.325Z,66.90
2018-04-30T19:24:22.995Z,66.80
2018-04-30T19:26:50.956Z,66.60
2018-04-30T19:29:18.564Z,66.80
2018-04-30T19:31:46.195Z,67.10
2018-04-30T19:34:14.023Z,67.40
2018-04-30T19:36:41.722Z,68.20
2018-04-30T19:39:09.378Z,67.40
2018-04-30T19:41:37.963Z,68.50
2018-04-30T19:44:05.813Z,68.50
2018-04-30T19:46:33.477Z,67.60
2018-04-30T19:49:01.192Z,67.90
2018-04-30T19:51:28.817Z,68.30
2018-04-30T19:53:57.487Z,68.20
2018-04-30T19:56:25.112Z,67.80
2018-04-30T19:58:52.816Z,67.30
2018-04-30T20:01:20.601Z,68.50
2018-04-30T20:03:48.264Z,69.30
2018-04-30T20:06:15.991Z,69.50
2018-04-30T20:08:43.640Z,68.80
2018-04-30T20:11:11.224Z,69.30
2018-04-30T20:13:38.927Z,69.60
2018-04-30T20:16:07.313Z,68.40
2018-04-30T20:18:35.876Z,68.40
2018-04-30T20:21:03.556Z,68.40
2018-04-30T20:23:31.307Z,68.70
2018-04-30T20:25:59.042Z,69.60
2018-04-30T20:28:26.697Z,67.40
2018-04-30T20:30:54.377Z,67.70
2018-04-30T20:33:22.039Z,68.40
2018-04-30T20:35:49.713Z,68.80
2018-04-30T20:38:17.362Z,68.90
2018-04-30T20:40:45.213Z,69.60
2018-04-30T20:43:13.118Z,68.90
2018-04-30T20:45:41.091Z,70.10
2018-04-30T20:48:08.799Z,69.60
2018-04-30T20:50:37.228Z,69.10
2018-04-30T20:53:04.895Z,69.10
2018-04-30T20:55:32.622Z,68.40
2018-04-30T20:58:00.292Z,67.20
2018-04-30T21:00:27.970Z,63.20
2018-04-30T21:02:55.658Z,60.70
2018-04-30T21:05:23.379Z,59.50
2018-04-30T21:07:50.978Z,59.30
2018-04-30T21:10:18.632Z,59.20
2018-04-30T21:12:46.457Z,58.00
2018-04-30T21:15:14.027Z,57.30
2018-04-30T21:17:42.886Z,59.10
2018-04-30T21:20:11.191Z,61.30
2018-04-30T21:22:38.843Z,61.40
2018-04-30T21:25:06.516Z,61.40
2018-04-30T21:27:34.290Z,61.00
2018-04-30T21:30:02.051Z,59.90
2018-04-30T21:32:29.703Z,60.10
2018-04-30T21:34:57.415Z,61.20
2018-04-30T21:37:25.043Z,61.10
2018-04-30T21:39:52.735Z,60.70
2018-04-30T21:42:20.372Z,61.50
2018-04-30T21:44:48.119Z,61.40
2018-04-30T21:47:16.162Z,62.30
2018-04-30T21:49:43.782Z,60.70
2018-04-30T21:52:11.366Z,60.50
2018-04-30T21:54:39.102Z,60.00
2018-04-30T21:57:06.727Z,60.00
2018-04-30T21:59:34.379Z,61.40
2018-04-30T22:02:02.004Z,60.60
2018-04-30T22:04:30.052Z,60.90
2018-04-30T22:06:58.244Z,61.30
2018-04-30T22:09:25.959Z,61.10
2018-04-30T22:11:53.680Z,61.00
2018-04-30T22:14:21.386Z,61.20
2018-04-30T22:16:49.164Z,60.90
2018-04-30T22:19:16.823Z,61.50
2018-04-30T22:21:44.500Z,60.60
2018-04-30T22:24:12.275Z,61.00
2018-04-30T22:26:40.012Z,60.50
2018-04-30T22:29:08.386Z,59.90
2018-04-30T22:31:36.036Z,59.90
2018-04-30T22:34:03.742Z,60.10
2018-04-30T22:36:31.377Z,59.60
2018-04-30T22:38:59.037Z,59.70
2018-04-30T22:41:26.794Z,59.60
2018-04-30T22:43:54.580Z,59.10
2018-04-30T22:46:22.331Z,58.50
2018-04-30T22:48:50.048Z,58.50
2018-04-30T22:51:17.707Z,58.70
2018-04-30T22:53:45.391Z,57.30
2018-04-30T22:56:13.081Z,57.10
2018-04-30T22:58:40.809Z,57.40
2018-04-30T23:01:08.593Z,56.60
2018-04-30T23:03:36.260Z,57.40
2018-04-30T23:06:03.874Z,57.50
2018-04-30T23:08:31.488Z,57.70
2018-04-30T23:10:59.158Z,56.80
2018-04-30T23:13:26.831Z,57.30
2018-04-30T23:15:54.555Z,57.30
2018-04-30T23:18:22.212Z,57.70
2018-04-30T23:20:49.885Z,57.50
2018-04-30T23:23:17.671Z,57.30
2018-04-30T23:25:45.326Z,57.80
2018-04-30T23:28:12.967Z,57.60
2018-04-30T23:30:40.605Z,57.50
2018-04-30T23:33:08.214Z,57.10
2018-04-30T23:35:35.876Z,57.90
2018-04-30T23:38:03.701Z,57.30
2018-04-30T23:40:31.405Z,57.50
2018-04-30T23:42:59.101Z,57.30
2018-04-30T23:45:26.742Z,56.60
2018-04-30T23:47:54.436Z,56.80
2018-04-30T23:50:22.060Z,57.40
2018-04-30T23:52:49.749Z,57.60
2018-04-30T23:55:18.207Z,58.10
2018-04-30T23:57:45.864Z,58.10
